createdAt,value
2018-03-16T00:00:25.294Z,988.55
2018-03-16T00:02:18.594Z,988.53
2018-03-16T00:03:18.554Z,988.47
2018-03-16T00:05:11.879Z,988.40
2018-03-16T00:06:11.837Z,988.39
2018-03-16T00:08:05.140Z,988.44
2018-03-16T00:09:05.184Z,988.51
2018-03-16T00:10:59.411Z,988.59
2018-03-16T00:11:59.364Z,988.64
2018-03-16T00:13:52.675Z,988.64
2018-03-16T00:14:52.618Z,988.66
2018-03-16T00:16:46.962Z,988.72
2018-03-16T00:17:46.883Z,988.72
2018-03-16T00:19:41.222Z,988.78
2018-03-16T00:20:41.155Z,988.80
2018-03-16T00:22:34.459Z,988.82
2018-03-16T00:23:34.413Z,988.88
2018-03-16T00:25:27.734Z,988.87
2018-03-16T00:26:27.674Z,988.90
2018-03-16T00:28:20.976Z,988.89
2018-03-16T00:29:20.934Z,988.93
2018-03-16T00:31:14.249Z,988.98
2018-03-16T00:32:14.204Z,988.99
2018-03-16T00:34:07.512Z,989.01
2018-03-16T00:35:07.475Z,989.03
2018-03-16T00:37:00.794Z,989.03
2018-03-16T00:38:00.734Z,989.05
2018-03-16T00:39:55.058Z,989.03
2018-03-16T00:40:55.018Z,989.07
2018-03-16T00:42:49.310Z,989.06
2018-03-16T00:43:49.270Z,989.11
2018-03-16T00:45:42.623Z,989.11
2018-03-16T00:46:42.565Z,989.17
2018-03-16T00:48:35.874Z,989.17
2018-03-16T00:49:35.836Z,989.15
2018-03-16T00:51:29.160Z,989.16
2018-03-16T00:52:29.101Z,989.16
2018-03-16T00:54:22.404Z,989.12
2018-03-16T00:55:22.360Z,989.15
2018-03-16T00:57:15.798Z,989.16
2018-03-16T00:58:15.715Z,989.14
2018-03-16T01:00:09.033Z,989.09
2018-03-16T01:01:08.991Z,989.08
2018-03-16T01:03:02.358Z,989.07
2018-03-16T01:04:02.258Z,989.06
2018-03-16T01:05:55.570Z,989.04
2018-03-16T01:06:55.524Z,989.03
2018-03-16T01:08:49.830Z,988.99
2018-03-16T01:09:49.779Z,988.96
2018-03-16T01:11:43.105Z,989.00
2018-03-16T01:12:43.049Z,988.95
2018-03-16T01:14:37.474Z,988.96
2018-03-16T01:15:37.385Z,989.01
2018-03-16T01:17:30.704Z,989.01
2018-03-16T01:18:30.650Z,989.02
2018-03-16T01:20:24.955Z,989.03
2018-03-16T01:21:24.916Z,989.01
2018-03-16T01:23:19.406Z,989.01
2018-03-16T01:24:19.186Z,989.00
2018-03-16T01:26:12.519Z,988.96
2018-03-16T01:27:12.456Z,988.99
2018-03-16T01:29:05.899Z,988.97
2018-03-16T01:30:05.731Z,988.96
2018-03-16T01:31:59.145Z,988.93
2018-03-16T01:32:59.005Z,988.97
2018-03-16T01:34:53.324Z,988.95
2018-03-16T01:35:53.274Z,988.98
2018-03-16T01:37:46.588Z,989.00
2018-03-16T01:38:46.530Z,989.01
2018-03-16T01:40:40.037Z,988.98
2018-03-16T01:41:39.854Z,988.98
2018-03-16T01:43:33.372Z,988.96
2018-03-16T01:44:33.324Z,988.97
2018-03-16T01:46:26.645Z,988.90
2018-03-16T01:47:26.589Z,988.94
2018-03-16T01:49:20.909Z,988.96
2018-03-16T01:50:20.860Z,988.90
2018-03-16T01:52:14.182Z,988.91
2018-03-16T01:53:14.124Z,988.90
2018-03-16T01:55:07.474Z,988.92
2018-03-16T01:56:07.514Z,988.91
2018-03-16T01:58:00.732Z,988.91
2018-03-16T01:59:00.672Z,988.91
2018-03-16T02:00:53.975Z,988.91
2018-03-16T02:01:53.935Z,988.91
2018-03-16T02:03:47.295Z,988.95
2018-03-16T02:04:47.278Z,988.93
2018-03-16T02:06:40.546Z,988.92
2018-03-16T02:07:40.486Z,988.98
2018-03-16T02:09:33.802Z,988.97
2018-03-16T02:10:33.745Z,989.01
2018-03-16T02:12:27.066Z,989.01
2018-03-16T02:13:27.019Z,989.02
2018-03-16T02:15:20.305Z,989.03
2018-03-16T02:16:20.266Z,988.99
2018-03-16T02:18:13.591Z,988.99
2018-03-16T02:19:13.539Z,988.98
2018-03-16T02:21:06.881Z,988.96
2018-03-16T02:22:06.824Z,989.00
2018-03-16T02:24:01.130Z,988.99
2018-03-16T02:25:01.087Z,988.97
2018-03-16T02:26:54.570Z,988.95
2018-03-16T02:27:54.481Z,988.98
2018-03-16T02:29:48.770Z,988.97
2018-03-16T02:30:48.749Z,988.99
2018-03-16T02:32:43.068Z,988.96
2018-03-16T02:33:43.016Z,988.94
2018-03-16T02:35:36.462Z,988.87
2018-03-16T02:36:36.327Z,988.88
2018-03-16T02:38:29.638Z,988.91
2018-03-16T02:39:29.585Z,988.90
2018-03-16T02:41:22.920Z,988.91
2018-03-16T02:42:22.850Z,988.93
2018-03-16T02:44:16.158Z,988.92
2018-03-16T02:45:16.123Z,988.90
2018-03-16T02:47:09.453Z,988.92
2018-03-16T02:48:09.412Z,988.99
2018-03-16T02:50:02.699Z,988.94
2018-03-16T02:51:02.662Z,988.95
2018-03-16T02:52:57.118Z,988.92
2018-03-16T02:53:56.961Z,988.95
2018-03-16T02:55:51.257Z,988.95
2018-03-16T02:56:51.216Z,988.94
2018-03-16T02:58:44.562Z,988.96
2018-03-16T02:59:44.489Z,988.97
2018-03-16T03:01:38.839Z,988.98
2018-03-16T03:02:38.755Z,989.02
2018-03-16T03:04:33.068Z,989.03
2018-03-16T03:05:33.022Z,988.99
2018-03-16T03:07:26.451Z,989.03
2018-03-16T03:08:26.292Z,989.03
2018-03-16T03:10:20.609Z,989.02
2018-03-16T03:11:20.553Z,989.03
2018-03-16T03:13:13.880Z,989.06
2018-03-16T03:14:13.821Z,989.06
2018-03-16T03:16:08.137Z,989.10
2018-03-16T03:17:08.077Z,989.10
2018-03-16T03:19:01.447Z,989.09
2018-03-16T03:20:01.350Z,989.13
2018-03-16T03:21:54.670Z,989.14
2018-03-16T03:22:54.617Z,989.13
2018-03-16T03:24:48.961Z,989.19
2018-03-16T03:25:48.902Z,989.21
2018-03-16T03:27:42.337Z,989.22
2018-03-16T03:28:42.162Z,989.26
2018-03-16T03:30:35.489Z,989.26
2018-03-16T03:31:35.433Z,989.27
2018-03-16T03:33:29.755Z,989.33
2018-03-16T03:34:29.683Z,989.37
2018-03-16T03:36:24.007Z,989.30
2018-03-16T03:37:23.957Z,989.31
2018-03-16T03:39:17.282Z,989.36
2018-03-16T03:40:17.216Z,989.35
2018-03-16T03:42:10.571Z,989.40
2018-03-16T03:43:10.508Z,989.35
2018-03-16T03:45:03.834Z,989.39
2018-03-16T03:46:03.763Z,989.43
2018-03-16T03:47:57.083Z,989.41
2018-03-16T03:48:57.042Z,989.43
2018-03-16T03:50:50.372Z,989.50
2018-03-16T03:51:50.314Z,989.52
2018-03-16T03:53:43.639Z,989.56
2018-03-16T03:54:43.580Z,989.56
2018-03-16T03:56:36.894Z,989.57
2018-03-16T03:57:36.840Z,989.58
2018-03-16T03:59:31.182Z,989.60
2018-03-16T04:00:31.137Z,989.65
2018-03-16T04:02:25.432Z,989.65
2018-03-16T04:03:25.378Z,989.66
2018-03-16T04:05:18.710Z,989.67
2018-03-16T04:06:18.651Z,989.66
2018-03-16T04:08:11.959Z,989.70
2018-03-16T04:09:11.948Z,989.65
2018-03-16T04:11:05.288Z,989.68
2018-03-16T04:12:05.210Z,989.66
2018-03-16T04:13:59.514Z,989.68
2018-03-16T04:14:59.485Z,989.64
2018-03-16T04:16:52.827Z,989.66
2018-03-16T04:17:52.767Z,989.64
2018-03-16T04:19:46.158Z,989.68
2018-03-16T04:20:46.028Z,989.62
2018-03-16T04:22:40.356Z,989.69
2018-03-16T04:23:40.293Z,989.71
2018-03-16T04:25:34.603Z,989.74
2018-03-16T04:26:34.555Z,989.73
2018-03-16T04:28:28.992Z,989.72
2018-03-16T04:29:28.835Z,989.74
2018-03-16T04:31:23.159Z,989.73
2018-03-16T04:32:23.098Z,989.74
2018-03-16T04:34:16.538Z,989.73
2018-03-16T04:35:16.367Z,989.74
2018-03-16T04:37:09.765Z,989.76
2018-03-16T04:38:09.634Z,989.75
2018-03-16T04:40:02.956Z,989.79
2018-03-16T04:41:02.923Z,989.80
2018-03-16T04:42:56.243Z,989.80
2018-03-16T04:43:56.193Z,989.84
2018-03-16T04:45:49.564Z,989.87
2018-03-16T04:46:49.458Z,989.87
2018-03-16T04:48:42.788Z,989.83
2018-03-16T04:49:42.743Z,989.87
2018-03-16T04:51:36.052Z,989.85
2018-03-16T04:52:35.993Z,989.89
2018-03-16T04:54:29.368Z,989.86
2018-03-16T04:55:29.273Z,989.86
2018-03-16T04:57:22.593Z,989.90
2018-03-16T04:58:22.528Z,989.92
2018-03-16T05:00:16.833Z,989.94
2018-03-16T05:01:16.796Z,989.98
2018-03-16T05:03:11.193Z,989.99
2018-03-16T05:04:11.047Z,989.99
2018-03-16T05:06:04.373Z,990.04
2018-03-16T05:07:04.329Z,990.05
2018-03-16T05:08:57.675Z,990.06
2018-03-16T05:09:57.598Z,990.03
2018-03-16T05:11:52.030Z,990.10
2018-03-16T05:12:51.863Z,990.06
2018-03-16T05:14:45.169Z,990.08
2018-03-16T05:15:45.165Z,990.08
2018-03-16T05:17:39.465Z,990.06
2018-03-16T05:18:39.391Z,990.07
2018-03-16T05:20:32.837Z,990.11
2018-03-16T05:21:32.674Z,990.10
2018-03-16T05:23:25.989Z,990.15
2018-03-16T05:24:25.934Z,990.16
2018-03-16T05:26:19.264Z,990.21
2018-03-16T05:27:19.198Z,990.24
2018-03-16T05:29:12.510Z,990.26
2018-03-16T05:30:12.463Z,990.24
2018-03-16T05:32:06.910Z,990.28
2018-03-16T05:33:06.735Z,990.32
2018-03-16T05:35:01.079Z,990.32
2018-03-16T05:36:00.999Z,990.36
2018-03-16T05:37:55.446Z,990.39
2018-03-16T05:38:55.250Z,990.38
2018-03-16T05:40:48.617Z,990.43
2018-03-16T05:41:48.552Z,990.43
2018-03-16T05:43:41.914Z,990.38
2018-03-16T05:44:41.869Z,990.42
2018-03-16T05:46:35.275Z,990.43
2018-03-16T05:47:35.137Z,990.43
2018-03-16T05:49:28.435Z,990.45
2018-03-16T05:50:28.399Z,990.47
2018-03-16T05:52:21.716Z,990.49
2018-03-16T05:53:21.661Z,990.45
2018-03-16T05:55:15.034Z,990.47
2018-03-16T05:56:14.925Z,990.53
2018-03-16T05:58:08.256Z,990.50
2018-03-16T05:59:08.199Z,990.53
2018-03-16T06:01:01.490Z,990.55
2018-03-16T06:02:01.461Z,990.53
2018-03-16T06:03:54.924Z,990.55
2018-03-16T06:04:54.751Z,990.56
2018-03-16T06:06:48.085Z,990.60
2018-03-16T06:07:48.015Z,990.55
2018-03-16T06:09:41.331Z,990.56
2018-03-16T06:10:41.298Z,990.54
2018-03-16T06:12:35.715Z,990.54
2018-03-16T06:13:35.549Z,990.55
2018-03-16T06:15:28.866Z,990.51
2018-03-16T06:16:28.816Z,990.51
2018-03-16T06:18:22.160Z,990.51
2018-03-16T06:19:22.099Z,990.49
2018-03-16T06:21:15.500Z,990.50
2018-03-16T06:22:15.360Z,990.50
2018-03-16T06:24:09.687Z,990.51
2018-03-16T06:25:09.621Z,990.53
2018-03-16T06:27:02.945Z,990.52
2018-03-16T06:28:02.926Z,990.57
2018-03-16T06:29:56.243Z,990.56
2018-03-16T06:30:56.175Z,990.56
2018-03-16T06:32:49.492Z,990.58
2018-03-16T06:33:49.452Z,990.56
2018-03-16T06:35:42.743Z,990.58
2018-03-16T06:36:42.715Z,990.58
2018-03-16T06:38:37.158Z,990.60
2018-03-16T06:39:36.970Z,990.59
2018-03-16T06:41:31.286Z,990.64
2018-03-16T06:42:31.242Z,990.61
2018-03-16T06:44:24.576Z,990.62
2018-03-16T06:45:24.510Z,990.65
2018-03-16T06:47:17.832Z,990.67
2018-03-16T06:48:17.777Z,990.70
2018-03-16T06:50:11.290Z,990.73
2018-03-16T06:51:11.046Z,990.73
2018-03-16T06:53:05.348Z,990.73
2018-03-16T06:54:05.306Z,990.69
2018-03-16T06:55:58.660Z,990.75
2018-03-16T06:56:58.604Z,990.74
2018-03-16T06:58:51.925Z,990.77
2018-03-16T06:59:51.868Z,990.79
2018-03-16T07:01:45.181Z,990.79
2018-03-16T07:02:45.138Z,990.80
2018-03-16T07:04:38.619Z,990.81
2018-03-16T07:05:38.424Z,990.82
2018-03-16T07:07:31.709Z,990.81
2018-03-16T07:08:31.689Z,990.85
2018-03-16T07:10:25.000Z,990.88
2018-03-16T07:11:24.945Z,990.93
2018-03-16T07:13:19.317Z,990.95
2018-03-16T07:14:19.217Z,990.96
2018-03-16T07:16:12.565Z,991.01
2018-03-16T07:17:12.489Z,991.01
2018-03-16T07:19:06.817Z,991.07
2018-03-16T07:20:06.752Z,991.06
2018-03-16T07:22:00.056Z,991.10
2018-03-16T07:23:00.012Z,991.11
2018-03-16T07:24:54.338Z,991.15
2018-03-16T07:25:54.273Z,991.16
2018-03-16T07:27:47.594Z,991.20
2018-03-16T07:28:47.564Z,991.22
2018-03-16T07:30:40.916Z,991.21
2018-03-16T07:31:40.851Z,991.20
2018-03-16T07:33:34.131Z,991.20
2018-03-16T07:34:34.097Z,991.22
2018-03-16T07:36:28.429Z,991.20
2018-03-16T07:37:28.377Z,991.27
2018-03-16T07:39:22.686Z,991.24
2018-03-16T07:40:22.646Z,991.27
2018-03-16T07:42:15.972Z,991.29
2018-03-16T07:43:15.932Z,991.29
2018-03-16T07:45:10.232Z,991.33
2018-03-16T07:46:10.167Z,991.35
2018-03-16T07:48:03.483Z,991.43
2018-03-16T07:49:03.444Z,991.44
2018-03-16T07:50:56.387Z,991.44
2018-03-16T07:51:56.335Z,991.44
2018-03-16T07:53:49.148Z,991.44
2018-03-16T07:54:49.112Z,991.45
2018-03-16T07:56:42.055Z,991.48
2018-03-16T07:57:41.999Z,991.49
2018-03-16T07:59:34.806Z,991.53
2018-03-16T08:00:34.775Z,991.54
2018-03-16T08:02:27.722Z,991.56
2018-03-16T08:03:27.668Z,991.58
2018-03-16T08:05:20.999Z,991.59
2018-03-16T08:06:20.942Z,991.58
2018-03-16T08:08:14.257Z,991.63
2018-03-16T08:09:14.212Z,991.64
2018-03-16T08:11:07.581Z,991.65
2018-03-16T08:12:07.494Z,991.66
2018-03-16T08:14:00.803Z,991.70
2018-03-16T08:15:00.762Z,991.72
2018-03-16T08:16:55.078Z,991.75
2018-03-16T08:17:55.038Z,991.78
2018-03-16T08:19:48.337Z,991.79
2018-03-16T08:20:48.289Z,991.79
2018-03-16T08:22:41.607Z,991.82
2018-03-16T08:23:41.563Z,991.83
2018-03-16T08:25:34.882Z,991.85
2018-03-16T08:26:35.022Z,991.84
2018-03-16T08:28:28.225Z,991.83
2018-03-16T08:29:28.127Z,991.86
2018-03-16T08:31:21.428Z,991.87
2018-03-16T08:32:21.398Z,991.86
2018-03-16T08:34:14.710Z,991.84
2018-03-16T08:35:14.667Z,991.89
2018-03-16T08:37:08.024Z,991.85
2018-03-16T08:38:07.968Z,991.89
2018-03-16T08:40:01.251Z,991.91
2018-03-16T08:41:01.222Z,991.90
2018-03-16T08:42:54.558Z,991.93
2018-03-16T08:43:54.495Z,991.94
2018-03-16T08:45:47.813Z,991.94
2018-03-16T08:46:47.768Z,991.96
2018-03-16T08:48:41.113Z,991.96
2018-03-16T08:49:41.058Z,991.94
2018-03-16T08:51:34.367Z,991.95
2018-03-16T08:52:34.304Z,991.96
2018-03-16T08:54:27.673Z,991.95
2018-03-16T08:55:27.587Z,991.99
2018-03-16T08:57:20.894Z,991.96
2018-03-16T08:58:20.863Z,991.98
2018-03-16T09:00:14.208Z,991.99
2018-03-16T09:01:14.135Z,991.97
2018-03-16T09:03:08.543Z,991.98
2018-03-16T09:04:08.421Z,992.02
2018-03-16T09:06:01.764Z,992.02
2018-03-16T09:07:01.707Z,992.02
2018-03-16T09:08:55.023Z,992.03
2018-03-16T09:09:54.972Z,992.04
2018-03-16T09:11:48.288Z,992.06
2018-03-16T09:12:48.234Z,992.01
2018-03-16T09:14:41.687Z,992.08
2018-03-16T09:15:41.509Z,992.08
2018-03-16T09:17:34.814Z,992.06
2018-03-16T09:18:34.767Z,992.04
2018-03-16T09:20:28.113Z,992.08
2018-03-16T09:21:28.049Z,992.10
2018-03-16T09:23:21.421Z,992.12
2018-03-16T09:24:21.318Z,992.14
2018-03-16T09:26:14.638Z,992.10
2018-03-16T09:27:14.608Z,992.12
2018-03-16T09:29:07.971Z,992.16
2018-03-16T09:30:07.871Z,992.14
2018-03-16T09:32:01.210Z,992.16
2018-03-16T09:33:01.140Z,992.18
2018-03-16T09:34:54.487Z,992.22
2018-03-16T09:35:54.416Z,992.17
2018-03-16T09:37:47.722Z,992.24
2018-03-16T09:38:47.694Z,992.22
2018-03-16T09:40:41.005Z,992.28
2018-03-16T09:41:40.963Z,992.26
2018-03-16T09:43:34.259Z,992.31
2018-03-16T09:44:34.231Z,992.28
2018-03-16T09:46:28.583Z,992.35
2018-03-16T09:47:28.495Z,992.33
2018-03-16T09:49:21.855Z,992.35
2018-03-16T09:50:21.770Z,992.38
2018-03-16T09:52:15.081Z,992.38
2018-03-16T09:53:15.050Z,992.41
2018-03-16T09:55:08.538Z,992.38
2018-03-16T09:56:08.332Z,992.40
2018-03-16T09:58:01.633Z,992.41
2018-03-16T09:59:01.602Z,992.42
2018-03-16T10:00:54.924Z,992.42
2018-03-16T10:01:54.871Z,992.45
2018-03-16T10:03:48.180Z,992.46
2018-03-16T10:04:48.149Z,992.41
2018-03-16T10:06:41.475Z,992.44
2018-03-16T10:07:41.407Z,992.43
2018-03-16T10:09:34.723Z,992.47
2018-03-16T10:10:34.695Z,992.43
2018-03-16T10:12:28.189Z,992.45
2018-03-16T10:13:27.961Z,992.44
2018-03-16T10:15:21.284Z,992.45
2018-03-16T10:16:21.222Z,992.44
2018-03-16T10:18:14.560Z,992.47
2018-03-16T10:19:14.506Z,992.47
2018-03-16T10:21:07.999Z,992.48
2018-03-16T10:22:07.777Z,992.52
2018-03-16T10:24:01.105Z,992.50
2018-03-16T10:25:01.055Z,992.50
2018-03-16T10:26:54.378Z,992.51
2018-03-16T10:27:54.326Z,992.57
2018-03-16T10:29:47.737Z,992.54
2018-03-16T10:30:47.619Z,992.58
2018-03-16T10:32:40.935Z,992.57
2018-03-16T10:33:40.885Z,992.57
2018-03-16T10:35:34.203Z,992.59
2018-03-16T10:36:34.160Z,992.57
2018-03-16T10:38:27.485Z,992.61
2018-03-16T10:39:27.418Z,992.63
2018-03-16T10:41:20.736Z,992.66
2018-03-16T10:42:20.724Z,992.68
2018-03-16T10:44:14.011Z,992.69
2018-03-16T10:45:13.952Z,992.70
2018-03-16T10:47:07.483Z,992.73
2018-03-16T10:48:07.266Z,992.77
2018-03-16T10:50:00.606Z,992.74
2018-03-16T10:51:00.553Z,992.75
2018-03-16T10:52:53.874Z,992.74
2018-03-16T10:53:53.840Z,992.75
2018-03-16T10:55:47.177Z,992.77
2018-03-16T10:56:47.100Z,992.75
2018-03-16T10:58:40.420Z,992.81
2018-03-16T10:59:40.384Z,992.78
2018-03-16T11:01:33.699Z,992.79
2018-03-16T11:02:33.703Z,992.80
2018-03-16T11:04:28.591Z,992.82
2018-03-16T11:05:26.917Z,992.83
2018-03-16T11:07:20.334Z,992.80
2018-03-16T11:08:20.210Z,992.81
2018-03-16T11:10:13.533Z,992.85
2018-03-16T11:11:13.488Z,992.82
2018-03-16T11:13:06.787Z,992.81
2018-03-16T11:14:06.757Z,992.83
2018-03-16T11:16:00.077Z,992.89
2018-03-16T11:17:00.011Z,992.87
2018-03-16T11:18:53.322Z,992.83
2018-03-16T11:19:53.282Z,992.87
2018-03-16T11:21:46.692Z,992.89
2018-03-16T11:22:46.582Z,992.88
2018-03-16T11:24:39.881Z,992.90
2018-03-16T11:25:39.846Z,992.87
2018-03-16T11:27:33.174Z,992.88
2018-03-16T11:28:33.103Z,992.87
2018-03-16T11:30:26.488Z,992.89
2018-03-16T11:31:26.393Z,992.87
2018-03-16T11:33:19.701Z,992.90
2018-03-16T11:34:19.652Z,992.87
2018-03-16T11:36:12.987Z,992.92
2018-03-16T11:37:12.936Z,992.90
2018-03-16T11:39:07.379Z,992.89
2018-03-16T11:40:07.201Z,992.93
2018-03-16T11:42:01.525Z,992.89
2018-03-16T11:43:01.481Z,992.94
2018-03-16T11:44:54.813Z,992.91
2018-03-16T11:45:54.782Z,992.92
2018-03-16T11:47:48.192Z,992.96
2018-03-16T11:48:48.048Z,992.99
2018-03-16T11:50:42.365Z,992.99
2018-03-16T11:51:42.314Z,993.01
2018-03-16T11:53:35.623Z,993.01
2018-03-16T11:54:35.610Z,993.01
2018-03-16T11:56:30.104Z,993.03
2018-03-16T11:57:29.893Z,993.05
2018-03-16T11:59:23.198Z,993.06
2018-03-16T12:00:23.166Z,993.05
2018-03-16T12:02:16.501Z,993.04
2018-03-16T12:03:16.451Z,993.01
2018-03-16T12:05:09.796Z,993.06
2018-03-16T12:06:09.714Z,993.01
2018-03-16T12:08:03.048Z,993.03
2018-03-16T12:09:02.996Z,993.03
2018-03-16T12:10:56.317Z,993.05
2018-03-16T12:11:56.273Z,993.05
2018-03-16T12:13:49.580Z,993.04
2018-03-16T12:14:49.553Z,993.06
2018-03-16T12:16:42.863Z,993.03
2018-03-16T12:17:42.808Z,993.03
2018-03-16T12:19:36.141Z,993.02
2018-03-16T12:20:36.093Z,993.04
2018-03-16T12:22:29.497Z,993.00
2018-03-16T12:23:29.387Z,992.99
2018-03-16T12:25:22.668Z,993.04
2018-03-16T12:26:22.647Z,993.05
2018-03-16T12:28:15.975Z,993.01
2018-03-16T12:29:15.896Z,993.02
2018-03-16T12:31:09.288Z,993.00
2018-03-16T12:32:09.214Z,993.01
2018-03-16T12:34:02.542Z,993.04
2018-03-16T12:35:02.492Z,993.00
2018-03-16T12:36:55.823Z,993.03
2018-03-16T12:37:55.757Z,993.06
2018-03-16T12:39:49.098Z,993.04
2018-03-16T12:40:49.031Z,993.07
2018-03-16T12:42:42.365Z,993.09
2018-03-16T12:43:42.316Z,993.07
2018-03-16T12:45:35.623Z,993.09
2018-03-16T12:46:35.582Z,993.08
2018-03-16T12:48:29.037Z,993.10
2018-03-16T12:49:28.835Z,993.10
2018-03-16T12:51:23.221Z,993.06
2018-03-16T12:52:23.112Z,993.12
2018-03-16T12:54:16.453Z,993.11
2018-03-16T12:55:16.397Z,993.12
2018-03-16T12:57:09.759Z,993.14
2018-03-16T12:58:09.649Z,993.15
2018-03-16T13:00:02.967Z,993.15
2018-03-16T13:01:02.923Z,993.14
2018-03-16T13:02:56.247Z,993.07
2018-03-16T13:03:56.198Z,993.07
2018-03-16T13:05:49.548Z,993.11
2018-03-16T13:06:49.478Z,993.04
2018-03-16T13:08:42.794Z,993.07
2018-03-16T13:09:42.729Z,993.07
2018-03-16T13:11:36.064Z,993.11
2018-03-16T13:12:35.998Z,993.11
2018-03-16T13:14:29.543Z,993.11
2018-03-16T13:15:29.326Z,993.15
2018-03-16T13:17:22.621Z,993.13
2018-03-16T13:18:22.591Z,993.14
2018-03-16T13:20:16.924Z,993.13
2018-03-16T13:21:16.869Z,993.12
2018-03-16T13:23:11.266Z,993.15
2018-03-16T13:24:11.145Z,993.10
2018-03-16T13:26:05.563Z,993.12
2018-03-16T13:27:05.410Z,993.15
2018-03-16T13:28:58.716Z,993.08
2018-03-16T13:29:58.673Z,993.08
2018-03-16T13:31:52.079Z,993.14
2018-03-16T13:32:51.948Z,993.11
2018-03-16T13:34:45.265Z,993.15
2018-03-16T13:35:45.219Z,993.15
2018-03-16T13:37:38.580Z,993.21
2018-03-16T13:38:38.485Z,993.17
2018-03-16T13:40:32.863Z,993.23
2018-03-16T13:41:32.763Z,993.23
2018-03-16T13:43:26.098Z,993.19
2018-03-16T13:44:26.078Z,993.15
2018-03-16T13:46:19.471Z,993.18
2018-03-16T13:47:19.339Z,993.24
2018-03-16T13:49:13.694Z,993.24
2018-03-16T13:50:13.621Z,993.23
2018-03-16T13:52:06.936Z,993.22
2018-03-16T13:53:06.902Z,993.21
2018-03-16T13:55:00.193Z,993.14
2018-03-16T13:56:00.144Z,993.16
2018-03-16T13:57:53.520Z,993.15
2018-03-16T13:58:53.445Z,993.16
2018-03-16T14:00:46.726Z,993.12
2018-03-16T14:01:46.694Z,993.09
2018-03-16T14:03:40.005Z,993.14
2018-03-16T14:04:39.948Z,993.19
2018-03-16T14:06:33.340Z,993.23
2018-03-16T14:07:33.235Z,993.20
2018-03-16T14:09:27.590Z,993.27
2018-03-16T14:10:27.530Z,993.25
2018-03-16T14:12:20.867Z,993.31
2018-03-16T14:13:20.812Z,993.31
2018-03-16T14:15:14.179Z,993.29
2018-03-16T14:16:14.108Z,993.34
2018-03-16T14:18:07.395Z,993.34
2018-03-16T14:19:07.341Z,993.37
2018-03-16T14:21:00.656Z,993.37
2018-03-16T14:22:00.616Z,993.39
2018-03-16T14:23:53.968Z,993.39
2018-03-16T14:24:53.870Z,993.41
2018-03-16T14:26:47.182Z,993.39
2018-03-16T14:27:47.153Z,993.40
2018-03-16T14:29:40.467Z,993.45
2018-03-16T14:30:40.421Z,993.42
2018-03-16T14:32:33.742Z,993.47
2018-03-16T14:33:33.686Z,993.42
2018-03-16T14:35:38.126Z,993.42
2018-03-16T14:36:38.018Z,993.50
2018-03-16T14:38:31.316Z,993.46
2018-03-16T14:39:31.285Z,993.51
2018-03-16T14:41:24.596Z,993.49
2018-03-16T14:42:24.561Z,993.52
2018-03-16T14:44:18.881Z,993.55
2018-03-16T14:45:18.828Z,993.52
2018-03-16T14:47:12.111Z,993.56
2018-03-16T14:48:12.081Z,993.52
2018-03-16T14:50:05.428Z,993.56
2018-03-16T14:51:05.357Z,993.53
2018-03-16T14:52:58.686Z,993.55
2018-03-16T14:53:58.628Z,993.59
2018-03-16T14:55:51.940Z,993.56
2018-03-16T14:56:51.879Z,993.58
2018-03-16T14:58:45.190Z,993.59
2018-03-16T14:59:45.145Z,993.59
2018-03-16T15:01:38.615Z,993.55
2018-03-16T15:02:38.441Z,993.56
2018-03-16T15:04:31.761Z,993.57
2018-03-16T15:05:31.711Z,993.50
2018-03-16T15:07:25.015Z,993.51
2018-03-16T15:08:24.982Z,993.51
2018-03-16T15:10:18.412Z,993.53
2018-03-16T15:11:18.257Z,993.55
2018-03-16T15:13:12.598Z,993.57
2018-03-16T15:14:12.518Z,993.59
2018-03-16T15:16:05.850Z,993.60
2018-03-16T15:17:05.800Z,993.62
2018-03-16T15:18:59.146Z,993.58
2018-03-16T15:19:59.062Z,993.58
2018-03-16T15:21:52.383Z,993.54
2018-03-16T15:22:52.331Z,993.56
2018-03-16T15:24:45.642Z,993.56
2018-03-16T15:25:45.611Z,993.60
2018-03-16T15:27:39.061Z,993.57
2018-03-16T15:28:38.887Z,993.60
2018-03-16T15:30:32.209Z,993.58
2018-03-16T15:31:32.156Z,993.56
2018-03-16T15:33:26.442Z,993.60
2018-03-16T15:34:26.423Z,993.61
2018-03-16T15:36:20.825Z,993.54
2018-03-16T15:37:20.701Z,993.56
2018-03-16T15:39:13.996Z,993.59
2018-03-16T15:40:13.963Z,993.56
2018-03-16T15:42:07.302Z,993.61
2018-03-16T15:43:07.213Z,993.62
2018-03-16T15:45:00.541Z,993.57
2018-03-16T15:46:00.483Z,993.62
2018-03-16T15:47:54.814Z,993.58
2018-03-16T15:48:54.758Z,993.60
2018-03-16T15:50:48.100Z,993.59
2018-03-16T15:51:48.026Z,993.59
2018-03-16T15:53:41.343Z,993.63
2018-03-16T15:54:41.288Z,993.60
2018-03-16T15:56:34.630Z,993.64
2018-03-16T15:57:34.566Z,993.64
2018-03-16T15:59:28.902Z,993.62
2018-03-16T16:00:28.837Z,993.64
2018-03-16T16:02:22.177Z,993.68
2018-03-16T16:03:22.122Z,993.64
2018-03-16T16:05:16.405Z,993.63
2018-03-16T16:06:16.366Z,993.65
2018-03-16T16:08:09.705Z,993.61
2018-03-16T16:09:09.629Z,993.66
2018-03-16T16:11:03.002Z,993.64
2018-03-16T16:12:02.990Z,993.68
2018-03-16T16:13:56.287Z,993.68
2018-03-16T16:14:56.242Z,993.78
2018-03-16T16:16:49.527Z,993.73
2018-03-16T16:17:49.511Z,993.75
2018-03-16T16:19:43.003Z,993.77
2018-03-16T16:20:42.766Z,993.78
2018-03-16T16:22:36.061Z,993.81
2018-03-16T16:23:36.028Z,993.80
2018-03-16T16:25:29.339Z,993.84
2018-03-16T16:26:29.281Z,993.84
2018-03-16T16:28:22.650Z,993.90
2018-03-16T16:29:22.554Z,993.89
2018-03-16T16:31:15.889Z,993.93
2018-03-16T16:32:15.817Z,993.92
2018-03-16T16:34:09.151Z,993.96
2018-03-16T16:35:09.118Z,994.00
2018-03-16T16:37:02.423Z,993.96
2018-03-16T16:38:02.358Z,993.98
2018-03-16T16:39:55.692Z,993.97
2018-03-16T16:40:55.642Z,993.98
2018-03-16T16:42:48.955Z,993.97
2018-03-16T16:43:48.907Z,993.96
2018-03-16T16:45:42.242Z,994.00
2018-03-16T16:46:42.158Z,993.98
2018-03-16T16:48:35.511Z,994.00
2018-03-16T16:49:35.418Z,994.03
2018-03-16T16:51:28.744Z,994.05
2018-03-16T16:52:28.677Z,994.09
2018-03-16T16:54:22.018Z,994.07
2018-03-16T16:55:21.973Z,994.08
2018-03-16T16:57:15.263Z,994.12
2018-03-16T16:58:15.253Z,994.10
2018-03-16T17:00:08.543Z,994.12
2018-03-16T17:01:08.478Z,994.14
2018-03-16T17:03:02.783Z,994.18
2018-03-16T17:04:02.747Z,994.17
2018-03-16T17:05:56.076Z,994.20
2018-03-16T17:06:56.020Z,994.22
2018-03-16T17:08:49.404Z,994.25
2018-03-16T17:09:49.363Z,994.27
2018-03-16T17:11:44.695Z,994.31
2018-03-16T17:12:44.624Z,994.32
2018-03-16T17:14:37.963Z,994.34
2018-03-16T17:15:37.897Z,994.34
2018-03-16T17:17:31.196Z,994.41
2018-03-16T17:18:31.148Z,994.40
2018-03-16T17:20:24.532Z,994.43
2018-03-16T17:21:24.429Z,994.42
2018-03-16T17:23:17.728Z,994.49
2018-03-16T17:24:17.702Z,994.49
2018-03-16T17:26:11.005Z,994.52
2018-03-16T17:27:10.945Z,994.51
2018-03-16T17:29:05.261Z,994.57
2018-03-16T17:30:05.200Z,994.60
2018-03-16T17:31:58.544Z,994.61
2018-03-16T17:32:58.471Z,994.57
2018-03-16T17:34:52.794Z,994.63
2018-03-16T17:35:52.741Z,994.63
2018-03-16T17:37:53.874Z,994.61
2018-03-16T17:38:53.809Z,994.64
2018-03-16T17:40:39.457Z,994.72
2018-03-16T17:41:39.540Z,994.75
2018-03-16T17:43:32.683Z,994.76
2018-03-16T17:44:32.633Z,994.76
2018-03-16T17:46:26.988Z,994.80
2018-03-16T17:47:26.902Z,994.80
2018-03-16T17:49:22.198Z,994.82
2018-03-16T17:50:22.168Z,994.77
2018-03-16T17:52:16.104Z,994.86
2018-03-16T17:53:15.424Z,994.87
2018-03-16T17:55:08.847Z,994.86
2018-03-16T17:56:08.704Z,994.93
2018-03-16T17:58:02.025Z,994.93
2018-03-16T17:59:01.964Z,994.95
2018-03-16T18:00:55.282Z,994.93
2018-03-16T18:01:55.224Z,994.97